Time;durP1;ratioP1;P1;durP2;ratioP2;P2;SDS_P1;SDS_P2;PMS_P1;PMS_P2;Temp;Humidity;BMP_temperature;BMP_pressure;BME280_temperature;BME280_humidity;BME280_pressure;Samples;Min_cycle;Max_cycle;Signal;HPM_P1;HPM_P2
2022/05/04 00:00:45;;;;;;;15.20;7.18;;;;;;;;;;4972584;28;20364;-66
2022/05/04 00:03:11;;;;;;;13.20;6.57;;;;;;;;;;4972638;28;20368;-66
2022/05/04 00:05:37;;;;;;;11.45;5.63;;;;;;;;;;4972892;28;20525;-66
2022/05/04 00:08:02;;;;;;;13.38;6.35;;;;;;;;;;4954822;28;20349;-66
2022/05/04 00:10:28;;;;;;;12.35;6.00;;;;;;;;;;4973330;28;20337;-66
2022/05/04 00:12:53;;;;;;;9.38;5.47;;;;;;;;;;4972127;28;20055;-66
2022/05/04 00:15:18;;;;;;;9.63;5.55;;;;;;;;;;4971181;28;20417;-66
2022/05/04 00:17:44;;;;;;;10.65;6.05;;;;;;;;;;4972737;28;20322;-66
2022/05/04 00:20:09;;;;;;;10.32;5.50;;;;;;;;;;4972385;28;20329;-66
2022/05/04 00:22:35;;;;;;;13.00;5.68;;;;;;;;;;4972521;28;20021;-66
2022/05/04 00:25:01;;;;;;;12.30;5.90;;;;;;;;;;4973079;28;20463;-66
2022/05/04 00:27:26;;;;;;;10.35;5.57;;;;;;;;;;4973981;28;20073;-66
2022/05/04 00:29:52;;;;;;;9.18;5.68;;;;;;;;;;4972691;28;20544;-66
2022/05/04 00:32:17;;;;;;;12.02;5.40;;;;;;;;;;4972700;28;20372;-65
2022/05/04 00:34:43;;;;;;;8.02;5.65;;;;;;;;;;4972447;28;20380;-66
2022/05/04 00:37:09;;;;;;;9.80;6.10;;;;;;;;;;4954640;28;20433;-66
2022/05/04 00:39:34;;;;;;;15.57;5.93;;;;;;;;;;4955816;28;20352;-66
2022/05/04 00:42:14;;;;;;;10.25;5.50;;;;;;;;;;4970651;28;20395;-66
2022/05/04 00:44:41;;;;;;;8.75;5.50;;;;;;;;;;4954597;28;20037;-66
2022/05/04 00:47:07;;;;;;;13.07;5.75;;;;;;;;;;4972936;28;20459;-66
2022/05/04 00:49:33;;;;;;;9.50;4.53;;;;;;;;;;4971813;28;20440;-66
2022/05/04 00:51:58;;;;;;;7.80;4.85;;;;;;;;;;4954405;28;20441;-66
2022/05/04 00:54:24;;;;;;;9.90;5.22;;;;;;;;;;4954358;28;20094;-66
2022/05/04 00:56:49;;;;;;;11.40;5.13;;;;;;;;;;4972069;28;20396;-66
2022/05/04 00:59:15;;;;;;;8.05;4.72;;;;;;;;;;4971534;28;20353;-66
2022/05/04 01:01:41;;;;;;;10.63;5.10;;;;;;;;;;4949259;28;20037;-66
2022/05/04 01:04:07;;;;;;;9.70;5.07;;;;;;;;;;4951910;28;20465;-66
2022/05/04 01:06:33;;;;;;;8.93;5.03;;;;;;;;;;4952330;28;20112;-66
2022/05/04 01:08:58;;;;;;;12.93;4.85;;;;;;;;;;4934723;28;20397;-66
2022/05/04 01:11:23;;;;;;;12.52;5.20;;;;;;;;;;4952650;28;20333;-66
2022/05/04 01:14:03;;;;;;;8.70;4.57;;;;;;;;;;4951833;28;20500;-66
2022/05/04 01:16:32;;;;;;;11.80;5.03;;;;;;;;;;4953753;28;20364;-65
2022/05/04 01:18:58;;;;;;;8.60;4.53;;;;;;;;;;4934615;28;20484;-65
2022/05/04 01:21:23;;;;;;;7.20;4.40;;;;;;;;;;4952374;28;20030;-66
2022/05/04 01:23:49;;;;;;;9.95;4.82;;;;;;;;;;4952869;28;20424;-65
2022/05/04 01:26:17;;;;;;;6.97;3.70;;;;;;;;;;4951951;28;20353;-65
2022/05/04 01:28:44;;;;;;;8.47;4.43;;;;;;;;;;4953649;28;20377;-66
2022/05/04 01:31:09;;;;;;;8.18;4.53;;;;;;;;;;4952102;28;20513;-65
2022/05/04 01:33:34;;;;;;;6.65;4.30;;;;;;;;;;4952135;28;20452;-66
2022/05/04 01:36:00;;;;;;;10.30;5.18;;;;;;;;;;4935466;28;20441;-65
2022/05/04 01:38:25;;;;;;;7.82;4.18;;;;;;;;;;4952563;28;20439;-65
2022/05/04 01:40:50;;;;;;;8.52;4.43;;;;;;;;;;4951972;28;20433;-65
2022/05/04 01:43:16;;;;;;;6.95;4.35;;;;;;;;;;4951476;28;20319;-65
2022/05/04 01:45:41;;;;;;;10.23;4.95;;;;;;;;;;4952097;28;20512;-65
2022/05/04 01:48:07;;;;;;;10.63;4.68;;;;;;;;;;4951729;28;20445;-65
2022/05/04 01:50:32;;;;;;;6.90;3.83;;;;;;;;;;4951963;28;20417;-66
2022/05/04 01:52:57;;;;;;;8.60;4.82;;;;;;;;;;4951277;28;20429;-65
2022/05/04 01:55:23;;;;;;;7.53;4.47;;;;;;;;;;4951749;28;20629;-65
2022/05/04 01:57:48;;;;;;;11.25;4.53;;;;;;;;;;4951075;28;20022;-66
2022/05/04 02:00:14;;;;;;;6.90;4.32;;;;;;;;;;4951752;28;20093;-65
2022/05/04 02:02:39;;;;;;;7.50;3.92;;;;;;;;;;4951067;28;20052;-65
2022/05/04 02:05:05;;;;;;;8.60;4.30;;;;;;;;;;4933840;28;20463;-66
2022/05/04 02:07:33;;;;;;;6.97;4.30;;;;;;;;;;4934239;28;20544;-65
2022/05/04 02:09:58;;;;;;;7.05;3.75;;;;;;;;;;4933849;28;20421;-65
2022/05/04 02:12:26;;;;;;;7.07;4.00;;;;;;;;;;4950756;28;20365;-65
2022/05/04 02:14:51;;;;;;;7.07;4.07;;;;;;;;;;4950465;28;20440;-65
2022/05/04 02:17:17;;;;;;;6.38;3.85;;;;;;;;;;4951524;28;20423;-65
2022/05/04 02:19:42;;;;;;;6.95;4.03;;;;;;;;;;4934202;28;20038;-65
2022/05/04 02:22:07;;;;;;;6.07;4.15;;;;;;;;;;4952398;28;20056;-65
2022/05/04 02:24:33;;;;;;;8.70;4.90;;;;;;;;;;4950920;28;20030;-65
2022/05/04 02:26:58;;;;;;;8.25;3.83;;;;;;;;;;4952629;28;20414;-65
2022/05/04 02:29:23;;;;;;;9.45;4.40;;;;;;;;;;4950709;28;20501;-66
2022/05/04 02:31:48;;;;;;;6.57;3.50;;;;;;;;;;4951358;28;20482;-65
2022/05/04 02:34:14;;;;;;;6.15;4.05;;;;;;;;;;4950735;28;20442;-66
2022/05/04 02:39:23;;;;;;;6.88;3.75;;;;;;;;;;4950688;28;20380;-66
2022/05/04 02:41:50;;;;;;;7.30;3.95;;;;;;;;;;4950894;28;20377;-65
2022/05/04 02:44:15;;;;;;;6.22;3.88;;;;;;;;;;4948908;28;20026;-65
2022/05/04 02:46:41;;;;;;;4.88;3.53;;;;;;;;;;4950940;28;20504;-65
2022/05/04 02:49:06;;;;;;;7.45;4.22;;;;;;;;;;4951001;28;20441;-65
2022/05/04 02:51:31;;;;;;;6.72;4.07;;;;;;;;;;4950688;28;20388;-65
2022/05/04 02:53:57;;;;;;;8.95;4.15;;;;;;;;;;4950524;28;20321;-65
2022/05/04 02:56:22;;;;;;;7.50;3.95;;;;;;;;;;4951080;28;20413;-65
2022/05/04 02:58:51;;;;;;;6.05;3.40;;;;;;;;;;4950341;28;20425;-65
2022/05/04 03:04:03;;;;;;;5.63;3.72;;;;;;;;;;4936357;28;20100;-66
2022/05/04 03:06:29;;;;;;;5.70;3.38;;;;;;;;;;4949189;28;20421;-65
2022/05/04 03:08:54;;;;;;;5.88;3.47;;;;;;;;;;4950316;28;20318;-65
2022/05/04 03:14:07;;;;;;;8.68;4.18;;;;;;;;;;4950855;28;20456;-65
2022/05/04 03:16:33;;;;;;;6.82;3.88;;;;;;;;;;4951335;28;20053;-65
2022/05/04 03:18:58;;;;;;;5.00;3.28;;;;;;;;;;4950229;28;20030;-65
2022/05/04 03:21:24;;;;;;;6.45;3.42;;;;;;;;;;4950634;28;20444;-66
2022/05/04 03:23:49;;;;;;;5.90;3.15;;;;;;;;;;4949985;28;20353;-65
2022/05/04 03:26:14;;;;;;;5.95;3.90;;;;;;;;;;4950563;28;20452;-65
2022/05/04 03:28:40;;;;;;;6.63;4.22;;;;;;;;;;4949747;28;20103;-65
2022/05/04 03:31:05;;;;;;;5.72;3.30;;;;;;;;;;4949924;28;20026;-65
2022/05/04 03:33:30;;;;;;;5.20;3.40;;;;;;;;;;4951899;28;20441;-66
2022/05/04 03:35:56;;;;;;;5.10;3.15;;;;;;;;;;4950349;28;20447;-65
2022/05/04 03:38:21;;;;;;;6.15;3.30;;;;;;;;;;4949687;28;20488;-66
2022/05/04 03:40:46;;;;;;;6.53;3.65;;;;;;;;;;4949828;28;20054;-65
2022/05/04 03:43:11;;;;;;;5.40;3.30;;;;;;;;;;4950036;28;20471;-65
2022/05/04 03:45:37;;;;;;;4.78;3.17;;;;;;;;;;4950029;28;20396;-65
2022/05/04 03:48:02;;;;;;;4.00;3.08;;;;;;;;;;4949935;28;20426;-65
2022/05/04 03:50:28;;;;;;;5.00;3.08;;;;;;;;;;4951319;28;20084;-66
2022/05/04 03:52:53;;;;;;;5.55;3.20;;;;;;;;;;4950960;28;20092;-65
2022/05/04 03:55:18;;;;;;;6.20;3.65;;;;;;;;;;4949725;28;20421;-65
2022/05/04 03:57:43;;;;;;;6.53;3.40;;;;;;;;;;4949677;28;20429;-66
2022/05/04 04:00:09;;;;;;;6.13;3.72;;;;;;;;;;4949806;28;20511;-66
2022/05/04 04:02:35;;;;;;;4.60;3.22;;;;;;;;;;4949382;28;20520;-66
2022/05/04 04:05:00;;;;;;;6.45;3.15;;;;;;;;;;4949705;28;20345;-65
2022/05/04 04:07:26;;;;;;;5.00;3.40;;;;;;;;;;4949582;28;20030;-65
2022/05/04 04:09:51;;;;;;;6.78;3.42;;;;;;;;;;4949844;28;20022;-65
2022/05/04 04:12:16;;;;;;;4.25;3.13;;;;;;;;;;4948999;28;20453;-65
2022/05/04 04:14:42;;;;;;;5.88;2.88;;;;;;;;;;4950545;28;20056;-65
2022/05/04 04:17:08;;;;;;;5.50;3.35;;;;;;;;;;4949331;28;20034;-65
2022/05/04 04:19:33;;;;;;;4.45;3.53;;;;;;;;;;4949862;28;20105;-66
2022/05/04 04:21:58;;;;;;;7.30;3.60;;;;;;;;;;4931671;28;20433;-65
2022/05/04 04:24:24;;;;;;;4.55;2.72;;;;;;;;;;4950605;28;20351;-66
2022/05/04 04:26:49;;;;;;;5.80;2.97;;;;;;;;;;4949702;28;20500;-65
2022/05/04 04:29:15;;;;;;;6.30;3.67;;;;;;;;;;4949334;28;20433;-65
2022/05/04 04:31:40;;;;;;;7.05;3.35;;;;;;;;;;4949314;28;20021;-66
2022/05/04 04:34:07;;;;;;;6.78;3.63;;;;;;;;;;4949062;28;20481;-66
2022/05/04 04:36:32;;;;;;;7.47;3.08;;;;;;;;;;4950451;28;20493;-66
2022/05/04 04:38:58;;;;;;;5.15;3.15;;;;;;;;;;4954475;28;20317;-65
2022/05/04 04:41:23;;;;;;;6.25;3.05;;;;;;;;;;4952927;28;20029;-66
2022/05/04 04:43:48;;;;;;;8.50;3.22;;;;;;;;;;4952995;28;20441;-66
2022/05/04 04:46:14;;;;;;;4.53;2.83;;;;;;;;;;4953144;28;20322;-65
2022/05/04 04:48:39;;;;;;;4.65;2.60;;;;;;;;;;4953563;28;20476;-65
2022/05/04 04:51:04;;;;;;;4.55;3.22;;;;;;;;;;4953506;28;20364;-65
2022/05/04 04:53:29;;;;;;;5.32;2.97;;;;;;;;;;4954213;28;20417;-65
2022/05/04 04:55:55;;;;;;;5.07;3.20;;;;;;;;;;4951049;28;20056;-66
2022/05/04 04:58:20;;;;;;;4.97;3.50;;;;;;;;;;4952949;28;20026;-66
2022/05/04 05:00:45;;;;;;;4.60;2.95;;;;;;;;;;4952993;28;20166;-67
2022/05/04 05:03:11;;;;;;;3.75;2.80;;;;;;;;;;4953021;28;20369;-65
2022/05/04 05:05:41;;;;;;;4.95;2.95;;;;;;;;;;4952655;28;20449;-65
2022/05/04 05:08:06;;;;;;;4.85;2.95;;;;;;;;;;4952288;28;20460;-65
2022/05/04 05:10:32;;;;;;;4.00;2.85;;;;;;;;;;4953426;28;20401;-66
2022/05/04 05:12:57;;;;;;;3.58;2.65;;;;;;;;;;4951709;28;20477;-66
2022/05/04 05:18:06;;;;;;;4.63;2.80;;;;;;;;;;4952156;28;20500;-66
2022/05/04 05:20:32;;;;;;;4.75;2.67;;;;;;;;;;4953976;28;20427;-66
2022/05/04 05:22:58;;;;;;;4.32;2.90;;;;;;;;;;4952063;28;20469;-65
2022/05/04 05:25:24;;;;;;;4.93;2.88;;;;;;;;;;4952071;28;20102;-65
2022/05/04 05:27:49;;;;;;;3.80;2.40;;;;;;;;;;4950410;28;20111;-65
2022/05/04 05:30:14;;;;;;;4.70;2.70;;;;;;;;;;4953584;28;20325;-66
2022/05/04 05:32:40;;;;;;;6.15;3.22;;;;;;;;;;4952815;28;20109;-65
2022/05/04 05:35:06;;;;;;;5.25;2.97;;;;;;;;;;4952080;28;20357;-66
2022/05/04 05:37:31;;;;;;;3.67;2.42;;;;;;;;;;4951971;28;20033;-65
2022/05/04 05:39:57;;;;;;;4.88;2.72;;;;;;;;;;4951571;28;20026;-66
2022/05/04 05:42:22;;;;;;;3.55;2.70;;;;;;;;;;4951878;28;20453;-65
2022/05/04 05:44:47;;;;;;;4.82;2.65;;;;;;;;;;4951655;28;20050;-66
2022/05/04 05:47:13;;;;;;;6.13;3.47;;;;;;;;;;4951720;28;20022;-65
2022/05/04 05:49:38;;;;;;;3.03;2.20;;;;;;;;;;4950767;28;20030;-65
2022/05/04 05:52:07;;;;;;;5.95;2.75;;;;;;;;;;4952285;28;20631;-65
2022/05/04 05:54:32;;;;;;;4.40;2.70;;;;;;;;;;4951636;28;20421;-65
2022/05/04 05:56:58;;;;;;;3.70;2.33;;;;;;;;;;4952273;28;20436;-65
2022/05/04 05:59:23;;;;;;;3.63;2.67;;;;;;;;;;4951976;28;20113;-65
2022/05/04 06:01:48;;;;;;;4.93;2.50;;;;;;;;;;4951670;28;20437;-65
2022/05/04 06:04:14;;;;;;;5.18;2.30;;;;;;;;;;4951631;28;20437;-65
2022/05/04 06:06:39;;;;;;;5.60;2.78;;;;;;;;;;4951166;28;20376;-65
2022/05/04 06:09:04;;;;;;;5.18;2.60;;;;;;;;;;4951341;28;20030;-65
2022/05/04 06:11:31;;;;;;;3.53;2.05;;;;;;;;;;4952527;28;20330;-66
2022/05/04 06:13:56;;;;;;;5.53;2.75;;;;;;;;;;4951329;28;20124;-65
2022/05/04 06:16:21;;;;;;;4.78;2.75;;;;;;;;;;4951656;28;20109;-65
2022/05/04 06:18:47;;;;;;;3.80;2.38;;;;;;;;;;4951239;28;20421;-65
2022/05/04 06:21:12;;;;;;;3.92;2.15;;;;;;;;;;4951918;28;20444;-65
2022/05/04 06:23:37;;;;;;;4.53;2.53;;;;;;;;;;4950839;28;20437;-65
2022/05/04 06:26:03;;;;;;;3.67;2.35;;;;;;;;;;4951182;28;20330;-65
2022/05/04 06:28:28;;;;;;;3.28;2.05;;;;;;;;;;4950855;28;20334;-66
2022/05/04 06:36:22;;;;;;;3.10;2.20;;;;;;;;;;4762740;28;5001301;-66
2022/05/04 06:38:47;;;;;;;3.45;2.28;;;;;;;;;;4950978;28;20489;-65
2022/05/04 06:41:13;;;;;;;3.75;2.28;;;;;;;;;;4950716;28;20353;-65
2022/05/04 06:43:38;;;;;;;3.53;2.30;;;;;;;;;;4952041;28;20496;-66
2022/05/04 06:46:04;;;;;;;3.50;2.50;;;;;;;;;;4950507;28;20524;-66
2022/05/04 06:48:29;;;;;;;7.55;2.15;;;;;;;;;;4951994;28;20317;-66
2022/05/04 06:50:55;;;;;;;4.20;2.20;;;;;;;;;;4951256;28;20381;-65
2022/05/04 06:53:20;;;;;;;3.78;2.20;;;;;;;;;;4950700;28;20401;-65
2022/05/04 06:55:45;;;;;;;3.63;2.08;;;;;;;;;;4950464;28;20523;-65
2022/05/04 06:58:11;;;;;;;4.25;2.20;;;;;;;;;;4950823;28;20443;-66
2022/05/04 07:00:36;;;;;;;2.90;2.33;;;;;;;;;;4949922;28;20512;-65
2022/05/04 07:03:01;;;;;;;5.03;2.10;;;;;;;;;;4950735;28;20455;-65
2022/05/04 07:05:27;;;;;;;3.65;2.58;;;;;;;;;;4950772;28;20414;-66
2022/05/04 07:07:53;;;;;;;2.85;1.95;;;;;;;;;;4950426;28;20445;-65
2022/05/04 07:10:18;;;;;;;3.00;2.00;;;;;;;;;;4950500;28;20338;-65
2022/05/04 07:12:44;;;;;;;4.47;2.25;;;;;;;;;;4949749;28;20468;-65
2022/05/04 07:15:09;;;;;;;3.72;2.17;;;;;;;;;;4950693;28;20053;-65
2022/05/04 07:17:34;;;;;;;2.58;2.00;;;;;;;;;;4950574;28;20349;-65
2022/05/04 07:20:00;;;;;;;2.97;2.30;;;;;;;;;;4950280;28;20467;-66
2022/05/04 07:22:25;;;;;;;3.50;2.45;;;;;;;;;;4950954;28;20425;-65
2022/05/04 07:24:51;;;;;;;2.88;1.88;;;;;;;;;;4950396;28;20056;-65
2022/05/04 07:27:16;;;;;;;4.05;2.40;;;;;;;;;;4950672;28;20385;-65
2022/05/04 07:29:46;;;;;;;2.88;1.85;;;;;;;;;;4949379;28;20381;-65
2022/05/04 07:32:12;;;;;;;3.42;2.10;;;;;;;;;;4949886;28;20092;-65
2022/05/04 07:34:37;;;;;;;3.13;2.20;;;;;;;;;;4951480;28;20500;-65
2022/05/04 07:37:03;;;;;;;4.32;2.35;;;;;;;;;;4949471;28;20065;-65
2022/05/04 07:42:22;;;;;;;2.40;1.83;;;;;;;;;;4949734;28;20516;-65
2022/05/04 07:45:00;;;;;;;2.75;1.70;;;;;;;;;;4950366;28;20655;-65
2022/05/04 07:47:32;;;;;;;3.50;2.23;;;;;;;;;;4951426;28;20440;-65
2022/05/04 07:49:59;;;;;;;6.32;2.45;;;;;;;;;;4949662;28;20452;-65
2022/05/04 07:52:25;;;;;;;2.72;1.98;;;;;;;;;;4950122;28;20064;-66
2022/05/04 07:54:51;;;;;;;4.18;2.55;;;;;;;;;;4932625;28;20437;-66
2022/05/04 07:57:16;;;;;;;3.15;2.25;;;;;;;;;;4949848;28;20430;-66
2022/05/04 07:59:42;;;;;;;2.63;1.85;;;;;;;;;;4932087;28;20341;-65
2022/05/04 08:04:51;;;;;;;2.75;2.00;;;;;;;;;;4948807;28;20053;-65
2022/05/04 08:07:17;;;;;;;4.60;2.40;;;;;;;;;;4949388;28;20457;-65
2022/05/04 08:09:42;;;;;;;5.80;2.03;;;;;;;;;;4949631;28;20315;-65
2022/05/04 08:12:11;;;;;;;5.18;1.80;;;;;;;;;;4951034;28;20361;-65
2022/05/04 08:14:36;;;;;;;4.03;2.03;;;;;;;;;;4953363;28;20329;-66
2022/05/04 08:17:01;;;;;;;2.08;1.73;;;;;;;;;;4953497;28;20344;-66
2022/05/04 08:19:27;;;;;;;3.33;1.90;;;;;;;;;;4935939;28;20333;-65
2022/05/04 08:21:52;;;;;;;3.38;2.25;;;;;;;;;;4953985;28;20346;-66
2022/05/04 08:24:18;;;;;;;2.40;1.77;;;;;;;;;;4952955;28;20653;-65
2022/05/04 08:26:43;;;;;;;3.88;2.00;;;;;;;;;;4953215;28;20492;-65
2022/05/04 08:29:09;;;;;;;3.45;2.33;;;;;;;;;;4952916;28;20456;-65
2022/05/04 08:31:34;;;;;;;3.85;1.90;;;;;;;;;;4953013;28;20454;-65
2022/05/04 08:34:00;;;;;;;4.20;2.40;;;;;;;;;;4953103;28;20052;-66
2022/05/04 08:36:26;;;;;;;3.08;1.90;;;;;;;;;;4953600;28;20442;-66
2022/05/04 08:38:52;;;;;;;1.73;1.60;;;;;;;;;;4953461;28;20345;-65
2022/05/04 08:41:18;;;;;;;2.92;2.00;;;;;;;;;;4953238;28;20310;-65
2022/05/04 08:43:44;;;;;;;4.78;2.53;;;;;;;;;;4952601;28;20337;-67
2022/05/04 08:46:13;;;;;;;1.90;1.70;;;;;;;;;;4953720;28;20448;-65
2022/05/04 08:48:38;;;;;;;2.90;2.03;;;;;;;;;;4952666;28;20034;-65
2022/05/04 08:51:04;;;;;;;2.97;2.05;;;;;;;;;;4952750;28;20112;-65
2022/05/04 08:53:30;;;;;;;2.65;1.77;;;;;;;;;;4935732;28;20355;-65
2022/05/04 08:55:55;;;;;;;3.50;2.03;;;;;;;;;;4952780;28;20484;-65
2022/05/04 08:58:21;;;;;;;3.58;2.20;;;;;;;;;;4953865;28;20452;-65
2022/05/04 09:00:46;;;;;;;3.67;1.90;;;;;;;;;;4935647;28;20345;-65
2022/05/04 09:03:11;;;;;;;2.67;1.98;;;;;;;;;;4952462;28;20322;-65
2022/05/04 09:05:45;;;;;;;3.50;2.10;;;;;;;;;;4953414;28;20318;-65
2022/05/04 09:08:11;;;;;;;2.33;1.90;;;;;;;;;;4952714;28;20349;-65
2022/05/04 09:10:38;;;;;;;2.58;1.90;;;;;;;;;;4952438;28;20057;-65
2022/05/04 09:13:04;;;;;;;3.67;2.05;;;;;;;;;;4934017;28;20488;-66
2022/05/04 09:15:31;;;;;;;2.63;1.92;;;;;;;;;;4952487;28;20441;-66
2022/05/04 09:18:11;;;;;;;4.30;2.10;;;;;;;;;;4952314;28;20342;-66
2022/05/04 09:20:49;;;;;;;5.88;1.83;;;;;;;;;;4952329;28;20421;-65
2022/05/04 09:23:22;;;;;;;2.67;2.00;;;;;;;;;;4951904;28;20033;-66
2022/05/04 09:25:52;;;;;;;3.35;2.22;;;;;;;;;;4952048;28;20030;-65
2022/05/04 09:28:19;;;;;;;3.17;2.25;;;;;;;;;;4951872;28;20378;-65
2022/05/04 09:30:49;;;;;;;2.50;1.90;;;;;;;;;;4952696;28;20444;-65
2022/05/04 09:33:23;;;;;;;3.42;2.13;;;;;;;;;;4952094;28;20303;-65
2022/05/04 09:35:49;;;;;;;2.67;1.77;;;;;;;;;;4951875;28;20314;-66
2022/05/04 09:46:39;;;;;;;2.55;1.83;;;;;;;;;;4951591;28;20048;-65
2022/05/04 09:49:21;;;;;;;3.03;1.63;;;;;;;;;;4952011;28;20488;-65
2022/05/04 09:51:53;;;;;;;3.65;1.90;;;;;;;;;;4951372;28;20099;-65
2022/05/04 09:54:20;;;;;;;2.30;1.63;;;;;;;;;;4951577;28;20089;-65
2022/05/04 09:56:48;;;;;;;3.75;2.28;;;;;;;;;;4951562;28;20449;-65
2022/05/04 09:59:15;;;;;;;3.00;1.67;;;;;;;;;;4951648;28;20116;-66
2022/05/04 10:01:42;;;;;;;3.53;1.83;;;;;;;;;;4951886;28;20065;-65
2022/05/04 10:04:08;;;;;;;3.05;1.80;;;;;;;;;;4951621;28;20120;-66
2022/05/04 10:06:33;;;;;;;3.22;2.17;;;;;;;;;;4951779;28;20026;-66
2022/05/04 10:08:59;;;;;;;3.05;1.73;;;;;;;;;;4934250;28;20409;-65
2022/05/04 10:11:25;;;;;;;5.90;1.75;;;;;;;;;;4950931;28;20468;-65
2022/05/04 10:13:53;;;;;;;2.45;1.77;;;;;;;;;;4933779;28;20434;-65
2022/05/04 10:16:18;;;;;;;2.67;1.93;;;;;;;;;;4951371;28;20323;-65
2022/05/04 10:18:46;;;;;;;3.30;1.90;;;;;;;;;;4933601;28;20168;-66
2022/05/04 10:21:15;;;;;;;3.55;2.05;;;;;;;;;;4934276;28;20030;-66
2022/05/04 10:23:47;;;;;;;2.33;1.63;;;;;;;;;;4933629;28;20465;-65
2022/05/04 10:26:12;;;;;;;4.72;2.10;;;;;;;;;;4933488;28;20389;-66
2022/05/04 10:28:41;;;;;;;2.85;1.73;;;;;;;;;;4951693;28;20381;-65
2022/05/04 10:31:10;;;;;;;2.72;1.83;;;;;;;;;;4951115;28;20429;-66
2022/05/04 10:33:36;;;;;;;;;;;;;;;;;;4951882;28;20463;-65
2022/05/04 10:36:26;;;;;;;2.15;1.73;;;;;;;;;;4951648;28;20225;-66
2022/05/04 10:38:56;;;;;;;2.47;1.80;;;;;;;;;;4933499;28;20045;-65
2022/05/04 10:41:35;;;;;;;1.60;1.40;;;;;;;;;;4952193;28;20441;-65
2022/05/04 10:44:01;;;;;;;2.88;1.60;;;;;;;;;;4950637;28;20349;-65
2022/05/04 10:46:28;;;;;;;2.78;2.00;;;;;;;;;;4950834;28;20299;-65
2022/05/04 10:48:57;;;;;;;2.72;1.70;;;;;;;;;;4950760;28;20445;-66
2022/05/04 10:51:26;;;;;;;;;;;;;;;;;;4951717;28;20437;-65
2022/05/04 10:53:53;;;;;;;1.90;1.35;;;;;;;;;;4952665;28;20371;-65
2022/05/04 10:56:26;;;;;;;2.30;1.90;;;;;;;;;;4933272;28;20184;-65
2022/05/04 10:58:55;;;;;;;4.00;1.88;;;;;;;;;;4950836;28;20026;-65
2022/05/04 11:01:25;;;;;;;4.65;2.25;;;;;;;;;;4950384;28;20441;-65
2022/05/04 11:03:57;;;;;;;6.65;2.40;;;;;;;;;;4933563;28;20112;-65
2022/05/04 11:06:31;;;;;;;6.03;2.15;;;;;;;;;;4950382;28;20037;-65
2022/05/04 11:08:59;;;;;;;2.75;1.75;;;;;;;;;;4931643;28;20362;-65
2022/05/04 11:11:25;;;;;;;2.67;1.92;;;;;;;;;;4948818;28;20520;-65
2022/05/04 11:13:52;;;;;;;2.20;1.85;;;;;;;;;;4949347;28;20476;-65
2022/05/04 11:16:19;;;;;;;2.85;1.70;;;;;;;;;;4951581;28;20520;-65
2022/05/04 11:18:44;;;;;;;2.20;1.70;;;;;;;;;;4950139;28;20345;-65
2022/05/04 11:21:11;;;;;;;2.80;1.70;;;;;;;;;;4949987;28;20045;-65
2022/05/04 11:23:38;;;;;;;2.58;1.80;;;;;;;;;;4950439;28;20418;-66
2022/05/04 11:26:03;;;;;;;2.45;1.50;;;;;;;;;;4950097;28;20455;-66
2022/05/04 11:28:28;;;;;;;3.05;1.80;;;;;;;;;;4951111;28;20389;-66
2022/05/04 11:30:54;;;;;;;2.40;1.75;;;;;;;;;;4950500;28;20636;-66
2022/05/04 11:33:19;;;;;;;3.13;1.95;;;;;;;;;;4949528;28;20512;-66
2022/05/04 11:35:52;;;;;;;2.15;1.42;;;;;;;;;;4949848;28;20052;-66
2022/05/04 11:38:18;;;;;;;5.00;1.50;;;;;;;;;;4949513;28;20449;-67
2022/05/04 11:40:48;;;;;;;2.25;1.42;;;;;;;;;;4951598;28;20433;-66
2022/05/04 11:43:33;;;;;;;3.05;2.05;;;;;;;;;;4949952;28;20025;-67
2022/05/04 11:46:03;;;;;;;1.67;1.27;;;;;;;;;;4948937;28;20585;-66
2022/05/04 11:48:29;;;;;;;2.30;1.58;;;;;;;;;;4949311;28;20322;-65
2022/05/04 11:50:54;;;;;;;2.92;1.70;;;;;;;;;;4950325;28;20038;-66
2022/05/04 11:53:20;;;;;;;2.17;1.60;;;;;;;;;;4949616;28;20418;-65
2022/05/04 11:55:45;;;;;;;2.53;1.63;;;;;;;;;;4949555;28;20417;-65
2022/05/04 11:58:11;;;;;;;1.40;1.20;;;;;;;;;;4949917;28;20508;-65
2022/05/04 12:00:38;;;;;;;2.97;1.92;;;;;;;;;;4950829;28;20333;-65
2022/05/04 12:03:05;;;;;;;2.10;1.70;;;;;;;;;;4949538;28;20361;-65
2022/05/04 12:05:32;;;;;;;4.00;2.00;;;;;;;;;;4932275;28;20053;-66
2022/05/04 12:07:58;;;;;;;2.75;1.70;;;;;;;;;;4950208;28;20398;-66
2022/05/04 12:10:23;;;;;;;1.77;1.42;;;;;;;;;;4949139;28;20456;-66
2022/05/04 12:12:48;;;;;;;3.55;2.00;;;;;;;;;;4931485;28;20604;-66
2022/05/04 12:15:16;;;;;;;2.05;1.58;;;;;;;;;;4949563;28;20493;-66
2022/05/04 12:17:41;;;;;;;2.08;1.70;;;;;;;;;;4949478;28;20029;-65
2022/05/04 12:20:07;;;;;;;3.05;1.70;;;;;;;;;;4949638;28;20496;-65
2022/05/04 12:22:33;;;;;;;6.18;1.88;;;;;;;;;;4949240;28;20030;-65
2022/05/04 12:25:01;;;;;;;1.95;1.67;;;;;;;;;;4950062;28;20385;-66
2022/05/04 12:27:26;;;;;;;2.60;1.65;;;;;;;;;;4933084;28;20352;-65
2022/05/04 12:35:29;;;;;;;2.30;1.70;;;;;;;;;;4950236;28;20416;-66
2022/05/04 12:37:54;;;;;;;2.42;1.77;;;;;;;;;;4948905;28;20433;-65
2022/05/04 12:40:20;;;;;;;3.05;2.10;;;;;;;;;;4949392;28;20433;-65
2022/05/04 12:42:46;;;;;;;2.58;1.75;;;;;;;;;;4931784;28;20033;-65
2022/05/04 12:45:16;;;;;;;3.30;2.10;;;;;;;;;;4949370;28;20044;-65
2022/05/04 12:47:41;;;;;;;4.57;2.17;;;;;;;;;;4949234;28;20299;-65
2022/05/04 12:50:07;;;;;;;3.00;1.85;;;;;;;;;;4949395;28;20390;-66
2022/05/04 12:52:36;;;;;;;3.58;2.22;;;;;;;;;;4931274;28;20429;-65
2022/05/04 12:55:01;;;;;;;2.72;1.80;;;;;;;;;;4948986;28;20345;-65
2022/05/04 12:57:27;;;;;;;2.53;1.80;;;;;;;;;;4950694;28;20345;-65
2022/05/04 12:59:52;;;;;;;2.22;1.70;;;;;;;;;;4952305;28;20345;-65
2022/05/04 13:02:17;;;;;;;2.83;1.90;;;;;;;;;;4952384;28;20437;-66
2022/05/04 13:04:43;;;;;;;1.55;1.40;;;;;;;;;;4952950;28;20397;-65
2022/05/04 13:07:08;;;;;;;2.13;1.60;;;;;;;;;;4952199;28;20438;-66
2022/05/04 13:09:34;;;;;;;2.35;1.70;;;;;;;;;;4952149;28;20574;-65
2022/05/04 13:11:59;;;;;;;1.70;1.50;;;;;;;;;;4952325;28;20343;-65
2022/05/04 13:14:25;;;;;;;3.47;1.67;;;;;;;;;;4952194;28;20329;-65
2022/05/04 13:16:51;;;;;;;1.90;1.50;;;;;;;;;;4952128;28;20352;-65
2022/05/04 13:19:18;;;;;;;3.55;1.98;;;;;;;;;;4952731;28;20449;-65
2022/05/04 13:21:43;;;;;;;2.50;1.75;;;;;;;;;;4951927;28;20104;-65
2022/05/04 13:24:09;;;;;;;2.75;1.70;;;;;;;;;;4952186;28;20029;-66
2022/05/04 13:26:34;;;;;;;4.03;1.70;;;;;;;;;;4952131;28;20342;-66
2022/05/04 13:29:00;;;;;;;2.53;1.80;;;;;;;;;;4951741;28;20432;-65
2022/05/04 13:31:25;;;;;;;2.78;1.90;;;;;;;;;;4934451;28;20409;-66
2022/05/04 13:33:52;;;;;;;3.03;1.80;;;;;;;;;;4934050;28;20034;-65
2022/05/04 13:36:17;;;;;;;2.67;1.80;;;;;;;;;;4952721;28;20531;-66
2022/05/04 13:38:42;;;;;;;1.92;1.45;;;;;;;;;;4951520;28;20433;-66
2022/05/04 13:41:08;;;;;;;2.55;1.63;;;;;;;;;;4951651;28;20463;-65
2022/05/04 13:43:33;;;;;;;5.40;1.70;;;;;;;;;;4953222;28;20382;-66
2022/05/04 13:45:58;;;;;;;2.45;1.42;;;;;;;;;;4951624;28;20372;-65
2022/05/04 13:48:24;;;;;;;2.45;1.80;;;;;;;;;;4934267;28;20508;-66
2022/05/04 13:53:33;;;;;;;2.22;1.67;;;;;;;;;;4936817;28;20056;-65
2022/05/04 13:55:58;;;;;;;2.42;1.83;;;;;;;;;;4951442;28;20030;-66
2022/05/04 13:58:25;;;;;;;2.22;1.30;;;;;;;;;;4952259;28;20353;-66
2022/05/04 14:00:51;;;;;;;3.58;1.50;;;;;;;;;;4951344;28;20042;-65
2022/05/04 14:03:17;;;;;;;3.25;2.00;;;;;;;;;;4951957;28;20460;-66
2022/05/04 14:05:43;;;;;;;2.63;1.70;;;;;;;;;;4934031;28;20395;-65
2022/05/04 14:08:08;;;;;;;3.03;1.48;;;;;;;;;;4951433;28;20434;-66
2022/05/04 14:10:35;;;;;;;2.80;1.73;;;;;;;;;;4951610;28;20497;-66
2022/05/04 14:13:01;;;;;;;2.95;1.85;;;;;;;;;;4950606;28;20487;-66
2022/05/04 14:15:27;;;;;;;2.10;1.80;;;;;;;;;;4933802;28;20048;-66
2022/05/04 14:17:52;;;;;;;2.13;1.60;;;;;;;;;;4933386;28;20417;-66
2022/05/04 14:20:18;;;;;;;2.60;1.70;;;;;;;;;;4950668;28;20370;-66
2022/05/04 14:22:43;;;;;;;3.33;1.63;;;;;;;;;;4950449;28;20488;-65
2022/05/04 14:25:08;;;;;;;3.00;1.85;;;;;;;;;;4951103;28;20341;-66
2022/05/04 14:27:34;;;;;;;2.03;1.65;;;;;;;;;;4950886;28;20376;-65
2022/05/04 14:30:00;;;;;;;2.28;1.83;;;;;;;;;;4950447;28;20571;-65
2022/05/04 14:32:25;;;;;;;2.17;1.52;;;;;;;;;;4951841;28;20417;-65
2022/05/04 14:34:50;;;;;;;2.33;1.48;;;;;;;;;;4951043;28;20544;-66
2022/05/04 14:37:16;;;;;;;2.78;1.88;;;;;;;;;;4933509;28;20445;-65
2022/05/04 14:39:41;;;;;;;2.03;1.65;;;;;;;;;;4952382;28;20096;-66
2022/05/04 14:42:07;;;;;;;1.75;1.40;;;;;;;;;;4950525;28;20329;-65
2022/05/04 14:44:32;;;;;;;2.72;1.67;;;;;;;;;;4950338;28;20414;-65
2022/05/04 14:46:58;;;;;;;1.95;1.80;;;;;;;;;;4950259;28;20345;-66
2022/05/04 14:49:23;;;;;;;2.35;1.40;;;;;;;;;;4950790;28;20093;-66
2022/05/04 14:51:49;;;;;;;1.92;1.70;;;;;;;;;;4950696;28;20455;-65
2022/05/04 14:54:14;;;;;;;2.30;1.40;;;;;;;;;;4950458;28;20439;-65
2022/05/04 14:56:39;;;;;;;2.15;1.83;;;;;;;;;;4950044;28;20509;-65
2022/05/04 14:59:05;;;;;;;1.58;1.30;;;;;;;;;;4950123;28;20464;-66
2022/05/04 15:01:30;;;;;;;1.80;1.63;;;;;;;;;;4950775;28;20421;-65
2022/05/04 15:06:40;;;;;;;2.40;1.80;;;;;;;;;;4949974;28;20684;-65
2022/05/04 15:09:05;;;;;;;2.90;1.50;;;;;;;;;;4951033;28;20424;-65
2022/05/04 15:11:30;;;;;;;2.10;1.42;;;;;;;;;;4950423;28;20503;-65
2022/05/04 15:13:56;;;;;;;2.72;2.03;;;;;;;;;;4951508;28;20425;-65
2022/05/04 15:16:23;;;;;;;2.40;1.60;;;;;;;;;;4950240;28;20345;-65
2022/05/04 15:18:48;;;;;;;1.42;1.30;;;;;;;;;;4932952;28;20560;-66